createdAt,value
2017-06-11T00:00:21.483Z,0
2017-06-11T00:01:31.745Z,0
2017-06-11T00:02:41.695Z,0
2017-06-11T00:03:51.956Z,0
2017-06-11T00:05:02.216Z,0
2017-06-11T00:06:12.162Z,0
2017-06-11T00:07:22.118Z,0
2017-06-11T00:08:32.384Z,0
2017-06-11T00:09:42.644Z,0
2017-06-11T00:10:52.908Z,0
2017-06-11T00:12:03.168Z,0
2017-06-11T00:13:13.430Z,0
2017-06-11T00:14:23.695Z,0
2017-06-11T00:15:33.957Z,0
2017-06-11T00:16:44.218Z,0
2017-06-11T00:17:53.900Z,0
2017-06-11T00:19:04.169Z,0
2017-06-11T00:20:14.111Z,0
2017-06-11T00:21:24.063Z,0
2017-06-11T00:22:34.014Z,0
2017-06-11T00:23:48.019Z,0
2017-06-11T00:24:58.281Z,0
2017-06-11T00:26:08.541Z,0
2017-06-11T00:27:18.800Z,0
2017-06-11T00:28:29.061Z,0
2017-06-11T00:29:39.323Z,0
2017-06-11T00:30:49.587Z,0
2017-06-11T00:31:59.854Z,0
2017-06-11T00:33:09.806Z,0
2017-06-11T00:34:20.066Z,0
2017-06-11T00:35:30.331Z,0
2017-06-11T00:36:40.598Z,0
2017-06-11T00:37:50.547Z,0
2017-06-11T00:39:00.813Z,0
2017-06-11T00:40:11.082Z,0
2017-06-11T00:41:21.342Z,0
2017-06-11T00:42:31.599Z,0
2017-06-11T00:43:41.863Z,0
2017-06-11T00:44:52.123Z,0
2017-06-11T00:46:02.385Z,0
2017-06-11T00:47:12.340Z,0
2017-06-11T00:48:22.282Z,0
2017-06-11T00:49:32.553Z,0
2017-06-11T00:50:42.815Z,0
2017-06-11T00:51:53.078Z,0
2017-06-11T00:53:03.019Z,0
2017-06-11T00:54:12.963Z,0
2017-06-11T00:55:23.229Z,0
2017-06-11T00:56:33.490Z,0
2017-06-11T00:57:43.436Z,0
2017-06-11T00:58:53.703Z,0
2017-06-11T01:00:03.962Z,0
2017-06-11T01:01:14.227Z,0
2017-06-11T01:02:24.494Z,0
2017-06-11T01:03:34.450Z,0
2017-06-11T01:04:44.718Z,0
2017-06-11T01:05:54.996Z,0
2017-06-11T01:07:05.263Z,0
2017-06-11T01:08:15.208Z,0
2017-06-11T01:09:25.471Z,0
2017-06-11T01:10:35.739Z,0
2017-06-11T01:11:45.994Z,0
2017-06-11T01:12:55.943Z,0
2017-06-11T01:14:06.207Z,0
2017-06-11T01:15:16.160Z,0
2017-06-11T01:16:26.424Z,0
2017-06-11T01:17:36.373Z,0
2017-06-11T01:18:46.636Z,0
2017-06-11T01:19:56.583Z,0
2017-06-11T01:21:06.535Z,0
2017-06-11T01:22:16.809Z,0
2017-06-11T01:23:27.064Z,0
2017-06-11T01:24:37.012Z,0
2017-06-11T01:25:46.970Z,0
2017-06-11T01:26:57.235Z,0
2017-06-11T01:28:07.501Z,0
2017-06-11T01:29:17.769Z,5
2017-06-11T01:30:28.036Z,5
2017-06-11T01:31:38.302Z,5
2017-06-11T01:32:48.258Z,5
2017-06-11T01:33:58.202Z,5
2017-06-11T01:35:08.460Z,5
2017-06-11T01:36:18.721Z,5
2017-06-11T01:37:28.980Z,5
2017-06-11T01:38:38.940Z,5
2017-06-11T01:39:49.219Z,5
2017-06-11T01:40:59.480Z,10
2017-06-11T01:42:09.752Z,10
2017-06-11T01:43:19.391Z,10
2017-06-11T01:44:29.659Z,10
2017-06-11T01:45:39.913Z,10
2017-06-11T01:46:50.178Z,10
2017-06-11T01:48:00.172Z,10
2017-06-11T01:49:10.433Z,10
2017-06-11T01:50:20.380Z,10
2017-06-11T01:51:30.641Z,15
2017-06-11T01:52:40.898Z,15
2017-06-11T01:53:51.165Z,15
2017-06-11T01:55:01.442Z,15
2017-06-11T01:56:11.394Z,15
2017-06-11T01:57:21.651Z,15
2017-06-11T01:58:31.922Z,15
2017-06-11T01:59:42.200Z,15
2017-06-11T02:00:52.464Z,15
2017-06-11T02:02:02.723Z,15
2017-06-11T02:03:12.557Z,20
2017-06-11T02:04:22.818Z,20
2017-06-11T02:05:32.139Z,20
2017-06-11T02:06:42.402Z,20
2017-06-11T02:07:52.668Z,20
2017-06-11T02:09:06.933Z,20
2017-06-11T02:10:17.198Z,25
2017-06-11T02:11:27.479Z,25
2017-06-11T02:12:37.745Z,25
2017-06-11T02:13:48.003Z,25
2017-06-11T02:14:58.515Z,30
2017-06-11T02:16:08.780Z,30
2017-06-11T02:17:19.044Z,30
2017-06-11T02:18:29.318Z,35
2017-06-11T02:19:39.617Z,35
2017-06-11T02:20:49.565Z,35
2017-06-11T02:21:59.829Z,35
2017-06-11T02:23:10.089Z,35
2017-06-11T02:24:20.353Z,40
2017-06-11T02:25:30.612Z,40
2017-06-11T02:26:40.558Z,40
2017-06-11T02:27:50.816Z,40
2017-06-11T02:29:01.072Z,40
2017-06-11T02:30:11.364Z,40
2017-06-11T02:31:21.312Z,45
2017-06-11T02:32:31.575Z,45
2017-06-11T02:33:41.841Z,45
2017-06-11T02:34:52.099Z,45
2017-06-11T02:36:02.369Z,50
2017-06-11T02:37:12.629Z,50
2017-06-11T02:38:22.905Z,50
2017-06-11T02:39:33.168Z,50
2017-06-11T02:40:43.116Z,55
2017-06-11T02:41:53.381Z,55
2017-06-11T02:43:03.644Z,55
2017-06-11T02:44:13.906Z,60
2017-06-11T02:45:23.845Z,60
2017-06-11T02:46:33.788Z,60
2017-06-11T02:47:44.052Z,65
2017-06-11T02:48:54.022Z,65
2017-06-11T02:50:04.287Z,70
2017-06-11T02:51:14.549Z,70
2017-06-11T02:52:24.806Z,75
2017-06-11T02:53:35.066Z,75
2017-06-11T02:54:45.332Z,75
2017-06-11T02:55:55.594Z,75
2017-06-11T02:57:05.542Z,75
2017-06-11T02:58:15.797Z,75
2017-06-11T02:59:25.746Z,75
2017-06-11T03:00:36.030Z,80
2017-06-11T03:01:45.986Z,75
2017-06-11T03:02:56.246Z,80
2017-06-11T03:04:06.499Z,80
2017-06-11T03:05:16.453Z,80
2017-06-11T03:06:26.709Z,80
2017-06-11T03:07:36.968Z,80
2017-06-11T03:08:47.239Z,80
2017-06-11T03:09:57.189Z,80
2017-06-11T03:11:07.451Z,80
2017-06-11T03:12:17.396Z,80
2017-06-11T03:13:27.651Z,80
2017-06-11T03:14:37.599Z,80
2017-06-11T03:15:47.545Z,80
2017-06-11T03:16:57.812Z,85
2017-06-11T03:18:07.760Z,85
2017-06-11T03:19:17.707Z,85
2017-06-11T03:20:27.967Z,85
2017-06-11T03:21:38.229Z,85
2017-06-11T03:22:48.174Z,90
2017-06-11T03:23:58.434Z,90
2017-06-11T03:25:08.699Z,90
2017-06-11T03:26:18.956Z,90
2017-06-11T03:27:29.213Z,95
2017-06-11T03:28:39.488Z,95
2017-06-11T03:29:49.745Z,95
2017-06-11T03:31:00.003Z,95
2017-06-11T03:32:10.262Z,100
2017-06-11T03:33:20.209Z,105
2017-06-11T03:34:30.479Z,105
2017-06-11T03:35:40.746Z,105
2017-06-11T03:36:51.011Z,105
2017-06-11T03:38:01.273Z,110
2017-06-11T03:39:11.539Z,105
2017-06-11T03:40:21.794Z,110
2017-06-11T03:41:32.050Z,110
2017-06-11T03:42:42.312Z,110
2017-06-11T03:43:52.579Z,110
2017-06-11T03:45:02.526Z,110
2017-06-11T03:46:12.164Z,115
2017-06-11T03:47:21.800Z,110
2017-06-11T03:48:31.751Z,115
2017-06-11T03:49:41.695Z,120
2017-06-11T03:50:51.956Z,125
2017-06-11T03:52:02.224Z,125
2017-06-11T03:53:12.172Z,125
2017-06-11T03:54:22.440Z,130
2017-06-11T03:55:32.704Z,135
2017-06-11T03:56:42.652Z,155
2017-06-11T03:57:52.603Z,160
2017-06-11T03:59:02.905Z,160
2017-06-11T04:00:13.163Z,165
2017-06-11T04:01:23.426Z,160
2017-06-11T04:02:33.687Z,160
2017-06-11T04:03:43.665Z,160
2017-06-11T04:04:53.939Z,190
2017-06-11T04:06:04.226Z,190
2017-06-11T04:07:14.493Z,185
2017-06-11T04:08:24.440Z,190
2017-06-11T04:09:34.712Z,210
2017-06-11T04:10:45.002Z,230
2017-06-11T04:11:54.952Z,245
2017-06-11T04:13:05.214Z,250
2017-06-11T04:14:15.155Z,260
2017-06-11T04:15:25.417Z,275
2017-06-11T04:16:35.685Z,275
2017-06-11T04:17:45.980Z,250
2017-06-11T04:18:56.241Z,260
2017-06-11T04:20:06.506Z,260
2017-06-11T04:21:16.458Z,255
2017-06-11T04:22:26.724Z,260
2017-06-11T04:23:36.676Z,245
2017-06-11T04:24:46.319Z,245
2017-06-11T04:25:56.574Z,225
2017-06-11T04:27:06.837Z,195
2017-06-11T04:28:16.793Z,180
2017-06-11T04:29:26.742Z,170
2017-06-11T04:30:37.001Z,175
2017-06-11T04:31:46.641Z,180
2017-06-11T04:32:56.905Z,165
2017-06-11T04:34:06.850Z,160
2017-06-11T04:35:16.796Z,170
2017-06-11T04:36:27.051Z,175
2017-06-11T04:37:37.320Z,190
2017-06-11T04:38:47.271Z,205
2017-06-11T04:39:57.535Z,205
2017-06-11T04:41:07.798Z,205
2017-06-11T04:42:17.744Z,205
2017-06-11T04:43:28.037Z,190
2017-06-11T04:44:37.984Z,190
2017-06-11T04:45:48.245Z,190
2017-06-11T04:46:58.518Z,185
2017-06-11T04:48:08.789Z,180
2017-06-11T04:49:19.053Z,180
2017-06-11T04:50:29.317Z,185
2017-06-11T04:51:39.582Z,180
2017-06-11T04:52:49.846Z,185
2017-06-11T04:53:59.795Z,185
2017-06-11T04:55:10.064Z,185
2017-06-11T04:56:20.330Z,185
2017-06-11T04:57:30.297Z,185
2017-06-11T04:58:40.555Z,185
2017-06-11T04:59:50.817Z,185
2017-06-11T05:01:01.082Z,190
2017-06-11T05:02:11.351Z,190
2017-06-11T05:03:21.611Z,190
2017-06-11T05:04:31.868Z,180
2017-06-11T05:05:41.496Z,175
2017-06-11T05:06:51.758Z,170
2017-06-11T05:08:01.709Z,165
2017-06-11T05:09:11.979Z,155
2017-06-11T05:10:22.240Z,150
2017-06-11T05:11:32.506Z,150
2017-06-11T05:12:42.768Z,150
2017-06-11T05:13:52.727Z,150
2017-06-11T05:15:02.997Z,150
2017-06-11T05:16:12.950Z,160
2017-06-11T05:17:22.900Z,160
2017-06-11T05:18:33.164Z,155
2017-06-11T05:19:43.429Z,155
2017-06-11T05:20:53.691Z,170
2017-06-11T05:22:03.970Z,155
2017-06-11T05:23:14.238Z,180
2017-06-11T05:24:24.504Z,175
2017-06-11T05:25:34.453Z,200
2017-06-11T05:26:44.091Z,200
2017-06-11T05:27:54.349Z,210
2017-06-11T05:29:04.619Z,210
2017-06-11T05:30:14.883Z,225
2017-06-11T05:31:25.139Z,235
2017-06-11T05:32:35.402Z,235
2017-06-11T05:33:45.035Z,240
2017-06-11T05:34:55.295Z,225
2017-06-11T05:36:05.553Z,220
2017-06-11T05:37:15.503Z,200
2017-06-11T05:38:25.775Z,210
2017-06-11T05:39:36.031Z,205
2017-06-11T05:40:45.983Z,205
2017-06-11T05:41:56.263Z,210
2017-06-11T05:43:06.520Z,215
2017-06-11T05:44:16.782Z,220
2017-06-11T05:45:27.046Z,235
2017-06-11T05:46:37.009Z,250
2017-06-11T05:47:46.959Z,245
2017-06-11T05:48:57.216Z,255
2017-06-11T05:50:07.484Z,270
2017-06-11T05:51:17.762Z,275
2017-06-11T05:52:28.025Z,275
2017-06-11T05:53:37.973Z,280
2017-06-11T05:54:48.232Z,280
2017-06-11T05:55:58.497Z,290
2017-06-11T05:57:08.756Z,290
2017-06-11T05:58:19.019Z,300
2017-06-11T05:59:29.285Z,305
2017-06-11T06:00:39.234Z,310
2017-06-11T06:01:49.183Z,325
2017-06-11T06:02:58.511Z,350
2017-06-11T06:04:08.462Z,365
2017-06-11T06:05:18.725Z,365
2017-06-11T06:06:28.993Z,360
2017-06-11T06:07:39.262Z,355
2017-06-11T06:08:49.526Z,345
2017-06-11T06:09:59.476Z,340
2017-06-11T06:11:09.736Z,335
2017-06-11T06:12:19.996Z,340
2017-06-11T06:13:30.272Z,340
2017-06-11T06:14:40.533Z,335
2017-06-11T06:15:50.802Z,335
2017-06-11T06:17:00.754Z,355
2017-06-11T06:18:11.061Z,350
2017-06-11T06:19:21.009Z,320
2017-06-11T06:20:31.274Z,310
2017-06-11T06:21:41.544Z,315
2017-06-11T06:22:51.491Z,330
2017-06-11T06:24:01.775Z,340
2017-06-11T06:25:12.037Z,345
2017-06-11T06:26:22.298Z,355
2017-06-11T06:27:32.253Z,370
2017-06-11T06:28:42.522Z,380
2017-06-11T06:29:52.486Z,385
2017-06-11T06:31:02.758Z,395
2017-06-11T06:32:13.025Z,420
2017-06-11T06:33:23.298Z,425
2017-06-11T06:34:33.562Z,410
2017-06-11T06:35:43.510Z,405
2017-06-11T06:36:53.770Z,415
2017-06-11T06:38:04.031Z,440
2017-06-11T06:39:14.295Z,465
2017-06-11T06:40:24.565Z,465
2017-06-11T06:41:34.510Z,455
2017-06-11T06:42:44.458Z,445
2017-06-11T06:43:54.718Z,440
2017-06-11T06:45:04.981Z,440
2017-06-11T06:46:15.245Z,440
2017-06-11T06:47:25.197Z,440
2017-06-11T06:48:35.144Z,445
2017-06-11T06:49:45.410Z,460
2017-06-11T06:50:55.674Z,465
2017-06-11T06:52:05.946Z,460
2017-06-11T06:53:15.899Z,460
2017-06-11T06:54:26.178Z,480
2017-06-11T06:55:36.449Z,480
2017-06-11T06:56:46.738Z,450
2017-06-11T06:57:57.031Z,435
2017-06-11T06:59:06.986Z,420
2017-06-11T07:00:16.942Z,375
2017-06-11T07:01:27.214Z,345
2017-06-11T07:02:37.483Z,315
2017-06-11T07:03:47.436Z,295
2017-06-11T07:04:57.707Z,290
2017-06-11T07:06:07.970Z,295
2017-06-11T07:07:17.927Z,290
2017-06-11T07:08:27.885Z,280
2017-06-11T07:09:38.152Z,270
2017-06-11T07:10:48.114Z,250
2017-06-11T07:11:58.379Z,255
2017-06-11T07:13:08.644Z,270
2017-06-11T07:14:18.908Z,295
2017-06-11T07:15:29.175Z,320
2017-06-11T07:16:39.438Z,345
2017-06-11T07:17:49.390Z,385
2017-06-11T07:18:59.349Z,395
2017-06-11T07:20:09.626Z,410
2017-06-11T07:21:19.575Z,405
2017-06-11T07:22:29.527Z,410
2017-06-11T07:23:39.814Z,395
2017-06-11T07:24:50.077Z,375
2017-06-11T07:26:00.338Z,375
2017-06-11T07:27:09.975Z,395
2017-06-11T07:28:20.242Z,425
2017-06-11T07:29:30.193Z,440
2017-06-11T07:30:40.140Z,455
2017-06-11T07:31:50.098Z,455
2017-06-11T07:33:00.366Z,435
2017-06-11T07:34:10.004Z,405
2017-06-11T07:35:19.642Z,370
2017-06-11T07:36:29.925Z,335
2017-06-11T07:37:40.201Z,320
2017-06-11T07:38:50.147Z,320
2017-06-11T07:40:00.410Z,305
2017-06-11T07:41:10.363Z,255
2017-06-11T07:42:20.633Z,210
2017-06-11T07:43:30.898Z,180
2017-06-11T07:44:41.168Z,160
2017-06-11T07:45:51.118Z,155
2017-06-11T07:47:01.382Z,180
2017-06-11T07:48:11.653Z,210
2017-06-11T07:49:21.925Z,245
2017-06-11T07:50:32.190Z,250
2017-06-11T07:51:42.461Z,205
2017-06-11T07:52:52.727Z,180
2017-06-11T07:54:02.992Z,195
2017-06-11T07:55:13.260Z,225
2017-06-11T07:56:23.532Z,255
2017-06-11T07:57:33.801Z,275
2017-06-11T07:58:43.754Z,270
2017-06-11T07:59:54.020Z,210
2017-06-11T08:01:04.284Z,180
2017-06-11T08:02:14.575Z,185
2017-06-11T08:03:24.524Z,215
2017-06-11T08:04:34.786Z,240
2017-06-11T08:05:45.058Z,250
2017-06-11T08:06:55.329Z,230
2017-06-11T08:08:05.284Z,200
2017-06-11T08:09:15.568Z,190
2017-06-11T08:10:25.835Z,185
2017-06-11T08:11:35.783Z,190
2017-06-11T08:12:45.739Z,190
2017-06-11T08:13:56.002Z,190
2017-06-11T08:15:06.269Z,205
2017-06-11T08:16:16.223Z,245
2017-06-11T08:17:26.511Z,290
2017-06-11T08:18:36.775Z,365
2017-06-11T08:19:47.046Z,400
2017-06-11T08:20:57.314Z,395
2017-06-11T08:22:07.588Z,435
2017-06-11T08:23:17.898Z,405
2017-06-11T08:24:28.167Z,385
2017-06-11T08:25:38.126Z,360
2017-06-11T08:26:48.081Z,310
2017-06-11T08:27:58.354Z,265
2017-06-11T08:29:08.617Z,250
2017-06-11T08:30:18.572Z,260
2017-06-11T08:31:27.892Z,270
2017-06-11T08:32:38.158Z,305
2017-06-11T08:33:48.425Z,360
2017-06-11T08:34:58.691Z,325
2017-06-11T08:36:08.957Z,255
2017-06-11T08:37:19.220Z,240
2017-06-11T08:38:29.485Z,225
2017-06-11T08:39:39.750Z,220
2017-06-11T08:40:49.700Z,215
2017-06-11T08:41:59.665Z,220
2017-06-11T08:43:09.946Z,225
2017-06-11T08:44:20.210Z,220
2017-06-11T08:45:30.478Z,210
2017-06-11T08:46:40.435Z,210
2017-06-11T08:47:50.388Z,215
2017-06-11T08:49:00.646Z,200
2017-06-11T08:50:10.909Z,185
2017-06-11T08:51:21.174Z,195
2017-06-11T08:52:31.127Z,210
2017-06-11T08:53:41.390Z,215
2017-06-11T08:54:51.358Z,200
2017-06-11T08:56:01.623Z,200
2017-06-11T08:57:11.890Z,235
2017-06-11T08:58:22.153Z,250
2017-06-11T08:59:32.412Z,230
2017-06-11T09:00:42.679Z,210
2017-06-11T09:01:52.630Z,185
2017-06-11T09:03:02.898Z,185
2017-06-11T09:04:12.853Z,200
2017-06-11T09:05:23.123Z,180
2017-06-11T09:06:33.076Z,185
2017-06-11T09:07:43.334Z,200
2017-06-11T09:08:53.298Z,190
2017-06-11T09:10:02.929Z,175
2017-06-11T09:11:13.196Z,175
2017-06-11T09:12:23.461Z,145
2017-06-11T09:13:33.407Z,130
2017-06-11T09:14:43.667Z,140
2017-06-11T09:15:53.619Z,155
2017-06-11T09:17:03.883Z,170
2017-06-11T09:18:13.837Z,190
2017-06-11T09:19:24.102Z,205
2017-06-11T09:20:34.067Z,235
2017-06-11T09:21:43.704Z,285
2017-06-11T09:22:53.665Z,335
2017-06-11T09:24:03.927Z,380
2017-06-11T09:25:14.191Z,385
2017-06-11T09:26:23.830Z,405
2017-06-11T09:27:33.773Z,455
2017-06-11T09:28:43.725Z,470
2017-06-11T09:29:54.019Z,405
2017-06-11T09:31:04.280Z,345
2017-06-11T09:32:14.541Z,330
2017-06-11T09:33:24.811Z,375
2017-06-11T09:34:34.759Z,425
2017-06-11T09:35:45.033Z,440
2017-06-11T09:36:54.983Z,445
2017-06-11T09:38:05.242Z,425
2017-06-11T09:39:15.507Z,375
2017-06-11T09:40:25.767Z,425
2017-06-11T09:41:36.033Z,625
2017-06-11T09:42:45.668Z,540
2017-06-11T09:43:55.931Z,530
2017-06-11T09:45:06.199Z,610
2017-06-11T09:46:16.153Z,570
2017-06-11T09:47:26.412Z,530
2017-06-11T09:48:36.358Z,365
2017-06-11T09:49:46.303Z,265
2017-06-11T09:50:56.571Z,205
2017-06-11T09:52:06.847Z,160
2017-06-11T09:53:17.110Z,155
2017-06-11T09:54:27.375Z,165
2017-06-11T09:55:37.338Z,175
2017-06-11T09:56:47.292Z,200
2017-06-11T09:57:57.551Z,215
2017-06-11T09:59:07.813Z,220
2017-06-11T10:00:18.076Z,220
2017-06-11T10:01:28.362Z,205
2017-06-11T10:02:38.675Z,200
2017-06-11T10:03:48.312Z,180
2017-06-11T10:04:58.280Z,170
2017-06-11T10:06:08.548Z,160
2017-06-11T10:07:18.813Z,160
2017-06-11T10:08:29.106Z,165
2017-06-11T10:09:39.366Z,170
2017-06-11T10:10:49.629Z,170
2017-06-11T10:11:59.890Z,185
2017-06-11T10:13:10.154Z,190
2017-06-11T10:14:20.416Z,175
2017-06-11T10:15:30.682Z,180
2017-06-11T10:16:40.947Z,200
2017-06-11T10:17:50.899Z,215
2017-06-11T10:19:00.537Z,215
2017-06-11T10:20:10.799Z,205
2017-06-11T10:21:21.061Z,190
2017-06-11T10:22:31.351Z,190
2017-06-11T10:23:41.618Z,180
2017-06-11T10:24:51.878Z,170
2017-06-11T10:26:02.146Z,170
2017-06-11T10:27:12.095Z,165
2017-06-11T10:28:22.354Z,165
2017-06-11T10:29:32.623Z,180
2017-06-11T10:30:42.879Z,195
2017-06-11T10:31:52.831Z,195
2017-06-11T10:33:02.150Z,195
2017-06-11T10:34:12.416Z,200
2017-06-11T10:35:22.682Z,220
2017-06-11T10:36:32.630Z,260
2017-06-11T10:37:42.577Z,255
2017-06-11T10:38:52.839Z,225
2017-06-11T10:40:03.098Z,195
2017-06-11T10:41:12.734Z,200
2017-06-11T10:42:22.996Z,185
2017-06-11T10:43:33.265Z,170
2017-06-11T10:44:43.527Z,175
2017-06-11T10:45:53.164Z,185
2017-06-11T10:47:03.112Z,180
2017-06-11T10:48:13.378Z,165
2017-06-11T10:49:23.332Z,155
2017-06-11T10:50:33.285Z,160
2017-06-11T10:51:43.553Z,165
2017-06-11T10:52:53.822Z,185
2017-06-11T10:54:04.088Z,205
2017-06-11T10:55:14.048Z,235
2017-06-11T10:56:24.315Z,275
2017-06-11T10:57:34.583Z,315
2017-06-11T10:58:44.535Z,375
2017-06-11T10:59:54.800Z,390
2017-06-11T11:01:05.065Z,350
2017-06-11T11:02:15.327Z,285
2017-06-11T11:03:25.592Z,270
2017-06-11T11:04:35.223Z,290
2017-06-11T11:05:45.172Z,265
2017-06-11T11:06:55.444Z,235
2017-06-11T11:08:05.712Z,225
2017-06-11T11:09:15.972Z,215
2017-06-11T11:10:26.235Z,205
2017-06-11T11:11:36.503Z,205
2017-06-11T11:12:46.767Z,215
2017-06-11T11:13:56.720Z,225
2017-06-11T11:15:06.983Z,265
2017-06-11T11:16:17.240Z,305
2017-06-11T11:17:27.501Z,310
2017-06-11T11:18:37.764Z,300
2017-06-11T11:19:48.023Z,255
2017-06-11T11:20:57.656Z,235
2017-06-11T11:22:07.928Z,255
2017-06-11T11:23:18.206Z,255
2017-06-11T11:24:28.153Z,230
2017-06-11T11:25:38.413Z,215
2017-06-11T11:26:48.366Z,200
2017-06-11T11:27:58.310Z,195
2017-06-11T11:29:08.263Z,200
2017-06-11T11:30:18.522Z,255
2017-06-11T11:31:28.458Z,230
2017-06-11T11:32:38.399Z,180
2017-06-11T11:33:48.658Z,175
2017-06-11T11:34:58.010Z,185
2017-06-11T11:36:08.273Z,180
2017-06-11T11:37:18.531Z,170
2017-06-11T11:38:28.474Z,175
2017-06-11T11:39:38.438Z,170
2017-06-11T11:40:48.378Z,150
2017-06-11T11:41:58.327Z,140
2017-06-11T11:43:08.585Z,145
2017-06-11T11:44:18.528Z,140
2017-06-11T11:45:28.476Z,135
2017-06-11T11:46:38.741Z,135
2017-06-11T11:47:49.001Z,135
2017-06-11T11:48:58.638Z,125
2017-06-11T11:50:08.898Z,125
2017-06-11T11:51:19.160Z,135
2017-06-11T11:52:29.419Z,130
2017-06-11T11:53:39.687Z,120
2017-06-11T11:54:49.945Z,110
2017-06-11T11:55:59.894Z,110
2017-06-11T11:57:09.837Z,115
2017-06-11T11:58:19.779Z,120
2017-06-11T11:59:29.406Z,110
2017-06-11T12:00:39.666Z,100
2017-06-11T12:01:49.927Z,85
2017-06-11T12:02:59.874Z,85
2017-06-11T12:04:09.818Z,90
2017-06-11T12:05:20.076Z,110
2017-06-11T12:06:30.017Z,120
2017-06-11T12:07:40.277Z,110
2017-06-11T12:08:50.533Z,115
2017-06-11T12:10:00.173Z,125
2017-06-11T12:11:10.120Z,125
2017-06-11T12:12:20.389Z,145
2017-06-11T12:13:30.670Z,165
2017-06-11T12:14:40.616Z,180
2017-06-11T12:15:50.560Z,200
2017-06-11T12:17:00.814Z,225
2017-06-11T12:18:11.070Z,250
2017-06-11T12:19:21.330Z,305
2017-06-11T12:20:31.588Z,350
2017-06-11T12:21:41.530Z,345
2017-06-11T12:22:51.163Z,335
2017-06-11T12:24:01.423Z,350
2017-06-11T12:25:11.685Z,330
2017-06-11T12:26:21.952Z,340
2017-06-11T12:27:32.211Z,330
2017-06-11T12:28:42.470Z,290
2017-06-11T12:29:52.729Z,235
2017-06-11T12:31:02.364Z,205
2017-06-11T12:32:12.625Z,190
2017-06-11T12:33:22.891Z,190
2017-06-11T12:34:33.152Z,240
2017-06-11T12:35:43.408Z,260
2017-06-11T12:36:53.677Z,250
2017-06-11T12:38:03.630Z,275
2017-06-11T12:39:13.578Z,270
2017-06-11T12:40:23.524Z,260
2017-06-11T12:41:33.785Z,245
2017-06-11T12:42:44.047Z,240
2017-06-11T12:43:54.309Z,220
2017-06-11T12:45:04.248Z,220
2017-06-11T12:46:14.508Z,275
2017-06-11T12:47:24.454Z,340
2017-06-11T12:48:34.712Z,375
2017-06-11T12:49:44.971Z,375
2017-06-11T12:50:54.914Z,265
2017-06-11T12:52:05.176Z,255
2017-06-11T12:53:15.437Z,230
2017-06-11T12:54:25.698Z,195
2017-06-11T12:55:35.959Z,190
2017-06-11T12:56:45.906Z,210
2017-06-11T12:57:56.372Z,200
2017-06-11T12:59:06.633Z,220
2017-06-11T13:00:16.897Z,205
2017-06-11T13:01:27.168Z,170
2017-06-11T13:02:37.432Z,200
2017-06-11T13:03:47.692Z,170
2017-06-11T13:04:57.644Z,135
2017-06-11T13:06:07.278Z,120
2017-06-11T13:07:17.227Z,120
2017-06-11T13:08:27.178Z,130
2017-06-11T13:09:36.813Z,130
2017-06-11T13:10:46.449Z,115
2017-06-11T13:11:56.395Z,115
2017-06-11T13:13:06.657Z,95
2017-06-11T13:14:16.922Z,85
2017-06-11T13:15:26.863Z,80
2017-06-11T13:16:37.120Z,85
2017-06-11T13:17:47.071Z,85
2017-06-11T13:18:57.336Z,75
2017-06-11T13:20:07.602Z,85
2017-06-11T13:21:17.867Z,95
2017-06-11T13:22:28.133Z,95
2017-06-11T13:23:38.083Z,85
2017-06-11T13:24:48.344Z,85
2017-06-11T13:25:58.601Z,85
2017-06-11T13:27:08.863Z,80
2017-06-11T13:28:19.128Z,85
2017-06-11T13:29:29.072Z,70
2017-06-11T13:30:39.337Z,70
2017-06-11T13:31:49.602Z,80
2017-06-11T13:32:59.234Z,95
2017-06-11T13:34:09.492Z,105
2017-06-11T13:35:19.756Z,105
2017-06-11T13:36:29.703Z,115
2017-06-11T13:37:39.650Z,115
2017-06-11T13:38:49.911Z,110
2017-06-11T13:39:59.545Z,130
2017-06-11T13:41:09.804Z,135
2017-06-11T13:42:20.065Z,135
2017-06-11T13:43:30.323Z,140
2017-06-11T13:44:40.662Z,125
2017-06-11T13:45:50.928Z,100
2017-06-11T13:47:01.197Z,95
2017-06-11T13:48:11.152Z,100
2017-06-11T13:49:21.409Z,110
2017-06-11T13:50:31.665Z,115
2017-06-11T13:51:41.646Z,95
2017-06-11T13:52:51.613Z,85
2017-06-11T13:54:01.247Z,85
2017-06-11T13:55:11.514Z,90
2017-06-11T13:56:21.775Z,90
2017-06-11T13:57:32.036Z,95
2017-06-11T13:58:42.301Z,110
2017-06-11T13:59:52.556Z,125
2017-06-11T14:01:02.810Z,150
2017-06-11T14:02:12.761Z,210
2017-06-11T14:03:23.026Z,220
2017-06-11T14:04:32.660Z,200
2017-06-11T14:05:42.290Z,170
2017-06-11T14:06:52.249Z,140
2017-06-11T14:08:02.505Z,135
2017-06-11T14:09:12.445Z,140
2017-06-11T14:10:22.708Z,140
2017-06-11T14:11:32.653Z,125
2017-06-11T14:12:42.918Z,120
2017-06-11T14:13:53.173Z,135
2017-06-11T14:15:03.430Z,160
2017-06-11T14:16:13.692Z,180
2017-06-11T14:17:23.948Z,190
2017-06-11T14:18:34.204Z,170
2017-06-11T14:19:44.468Z,175
2017-06-11T14:20:54.729Z,140
2017-06-11T14:22:04.677Z,145
2017-06-11T14:23:14.946Z,160
2017-06-11T14:24:24.578Z,130
2017-06-11T14:25:34.842Z,100
2017-06-11T14:26:45.101Z,85
2017-06-11T14:27:55.046Z,70
2017-06-11T14:29:04.994Z,75
2017-06-11T14:30:15.263Z,70
2017-06-11T14:31:25.521Z,70
2017-06-11T14:32:35.469Z,75
2017-06-11T14:33:45.719Z,70
2017-06-11T14:34:55.661Z,75
2017-06-11T14:36:05.607Z,80
2017-06-11T14:37:15.870Z,90
2017-06-11T14:38:26.153Z,85
2017-06-11T14:39:36.410Z,85
2017-06-11T14:40:46.667Z,80
2017-06-11T14:41:56.614Z,85
2017-06-11T14:43:06.875Z,85
2017-06-11T14:44:17.148Z,90
2017-06-11T14:45:27.405Z,75
2017-06-11T14:46:37.670Z,70
2017-06-11T14:47:47.931Z,75
2017-06-11T14:48:58.190Z,70
2017-06-11T14:50:08.134Z,65
2017-06-11T14:51:18.395Z,75
2017-06-11T14:52:28.652Z,85
2017-06-11T14:53:38.913Z,115
2017-06-11T14:54:49.170Z,120
2017-06-11T14:55:59.117Z,115
2017-06-11T14:57:09.067Z,115
2017-06-11T14:58:19.329Z,110
2017-06-11T14:59:29.279Z,100
2017-06-11T15:00:39.229Z,90
2017-06-11T15:01:49.480Z,90
2017-06-11T15:02:59.749Z,115
2017-06-11T15:04:09.692Z,130
2017-06-11T15:05:19.648Z,135
2017-06-11T15:06:29.908Z,150
2017-06-11T15:07:40.166Z,160
2017-06-11T15:08:50.424Z,175
2017-06-11T15:10:00.680Z,175
2017-06-11T15:11:10.934Z,150
2017-06-11T15:12:21.199Z,130
2017-06-11T15:13:31.147Z,180
2017-06-11T15:14:41.414Z,205
2017-06-11T15:15:51.673Z,190
2017-06-11T15:17:01.932Z,180
2017-06-11T15:18:12.189Z,160
2017-06-11T15:19:22.456Z,130
2017-06-11T15:20:32.715Z,115
2017-06-11T15:21:42.986Z,120
2017-06-11T15:22:52.929Z,150
2017-06-11T15:24:02.558Z,150
2017-06-11T15:25:12.822Z,190
2017-06-11T15:26:23.083Z,215
2017-06-11T15:27:33.348Z,215
2017-06-11T15:28:43.616Z,210
2017-06-11T15:29:53.872Z,220
2017-06-11T15:31:03.510Z,205
2017-06-11T15:32:13.772Z,230
2017-06-11T15:33:24.029Z,250
2017-06-11T15:34:34.288Z,235
2017-06-11T15:35:44.236Z,215
2017-06-11T15:36:54.492Z,235
2017-06-11T15:38:04.763Z,235
2017-06-11T15:39:14.711Z,190
2017-06-11T15:40:24.972Z,185
2017-06-11T15:41:35.229Z,190
2017-06-11T15:42:45.174Z,185
2017-06-11T15:43:55.123Z,190
2017-06-11T15:45:05.382Z,195
2017-06-11T15:46:15.642Z,220
2017-06-11T15:47:25.903Z,230
2017-06-11T15:48:35.843Z,250
2017-06-11T15:49:46.104Z,180
2017-06-11T15:50:56.365Z,115
2017-06-11T15:52:06.313Z,125
2017-06-11T15:53:16.578Z,150
2017-06-11T15:54:26.521Z,180
2017-06-11T15:55:36.782Z,155
2017-06-11T15:56:47.041Z,135
2017-06-11T15:57:56.986Z,160
2017-06-11T15:59:07.255Z,175
2017-06-11T16:00:17.203Z,125
2017-06-11T16:01:27.467Z,105
2017-06-11T16:02:37.728Z,110
2017-06-11T16:03:47.985Z,110
2017-06-11T16:04:57.930Z,125
2017-06-11T16:06:07.885Z,110
2017-06-11T16:07:18.145Z,95
2017-06-11T16:08:28.406Z,90
2017-06-11T16:09:38.667Z,105
2017-06-11T16:10:48.930Z,130
2017-06-11T16:11:59.185Z,180
2017-06-11T16:13:09.447Z,270
2017-06-11T16:14:19.390Z,565
2017-06-11T16:15:29.647Z,815
2017-06-11T16:16:39.905Z,520
2017-06-11T16:17:50.161Z,520
2017-06-11T16:19:00.419Z,605